Van Horn, Texas
Current Conditions -  °F | °C
As of 1:51 AM on Saturday 25 Oct 2014 (Local Time) from KGDP Reporting Station
Clear Clear  
Wind Chill: 17°   Ceiling: Unl
Heat Index: 17°   Visibility: 10mi
Dew Point:   Wind: 9mph
Humidity: 56%   Direction: 250°WSW
Pressure: 30.31"   Gusts: NA
Location:  31.04°N, 104.83°W
Report Text: KGDP 250651Z AUTO 25008KT 10SM CLR 17/08 A3031 RMK AO2 SLP191 T01670078 402610133
Loading
Personal Weather Stations






























Interactive Weather Map
Tropical Storm Tracking
New forecast layout! Learn more

10-Day Weather Forecast

Advertisements
Track Severe Weather on mobile